sensor_id;sensor_type;location;lat;lon;timestamp;pressure;altitude;pressure_sealevel;temperature
77599;BMP280;66758;52.078;5.070;2023-09-19T00:00:06;101524.19;;;15.53
77599;BMP280;66758;52.078;5.070;2023-09-19T00:02:32;101624.91;;;15.62
77599;BMP280;66758;52.078;5.070;2023-09-19T00:04:58;101733.00;;;15.57
77599;BMP280;66758;52.078;5.070;2023-09-19T00:07:23;101766.28;;;15.45
77599;BMP280;66758;52.078;5.070;2023-09-19T00:09:49;101775.94;;;15.55
77599;BMP280;66758;52.078;5.070;2023-09-19T00:12:14;101709.41;;;15.63
77599;BMP280;66758;52.078;5.070;2023-09-19T00:14:40;101733.66;;;15.73
77599;BMP280;66758;52.078;5.070;2023-09-19T00:17:05;101743.19;;;15.76
77599;BMP280;66758;52.078;5.070;2023-09-19T00:19:36;101737.75;;;15.83
77599;BMP280;66758;52.078;5.070;2023-09-19T00:22:03;101778.03;;;15.84
77599;BMP280;66758;52.078;5.070;2023-09-19T00:24:29;101807.22;;;15.81
77599;BMP280;66758;52.078;5.070;2023-09-19T00:26:54;101854.63;;;15.83
77599;BMP280;66758;52.078;5.070;2023-09-19T00:29:21;101853.16;;;15.90
77599;BMP280;66758;52.078;5.070;2023-09-19T00:31:48;101919.88;;;15.88
77599;BMP280;66758;52.078;5.070;2023-09-19T00:34:14;101965.25;;;15.87
77599;BMP280;66758;52.078;5.070;2023-09-19T00:36:39;101927.44;;;15.91
77599;BMP280;66758;52.078;5.070;2023-09-19T00:39:06;101927.66;;;16.02
77599;BMP280;66758;52.078;5.070;2023-09-19T00:41:32;101938.41;;;16.07
77599;BMP280;66758;52.078;5.070;2023-09-19T00:43:59;101936.31;;;16.00
77599;BMP280;66758;52.078;5.070;2023-09-19T00:46:26;101906.63;;;15.97
77599;BMP280;66758;52.078;5.070;2023-09-19T00:48:52;101872.28;;;15.98
77599;BMP280;66758;52.078;5.070;2023-09-19T00:51:17;101857.38;;;16.03
77599;BMP280;66758;52.078;5.070;2023-09-19T00:53:46;101725.72;;;15.95
77599;BMP280;66758;52.078;5.070;2023-09-19T00:56:12;101687.34;;;15.90
77599;BMP280;66758;52.078;5.070;2023-09-19T00:58:38;101655.84;;;15.98
77599;BMP280;66758;52.078;5.070;2023-09-19T01:01:04;101627.34;;;15.90
77599;BMP280;66758;52.078;5.070;2023-09-19T01:03:33;101600.88;;;15.89
77599;BMP280;66758;52.078;5.070;2023-09-19T01:05:59;101566.16;;;15.92
77599;BMP280;66758;52.078;5.070;2023-09-19T01:08:26;101558.69;;;15.92
77599;BMP280;66758;52.078;5.070;2023-09-19T01:11:17;101495.41;;;15.87
77599;BMP280;66758;52.078;5.070;2023-09-19T01:13:56;101468.66;;;15.95
77599;BMP280;66758;52.078;5.070;2023-09-19T01:16:32;101410.53;;;15.88
77599;BMP280;66758;52.078;5.070;2023-09-19T01:22:41;101303.84;;;15.76
77599;BMP280;66758;52.078;5.070;2023-09-19T01:25:45;101203.81;;;15.60
77599;BMP280;66758;52.078;5.070;2023-09-19T01:30:57;101093.28;;;15.49
77599;BMP280;66758;52.078;5.070;2023-09-19T01:33:25;101029.72;;;15.42
77599;BMP280;66758;52.078;5.070;2023-09-19T01:35:51;100966.97;;;15.35
77599;BMP280;66758;52.078;5.070;2023-09-19T01:38:19;100945.28;;;15.37
77599;BMP280;66758;52.078;5.070;2023-09-19T01:40:56;100889.72;;;15.43
77599;BMP280;66758;52.078;5.070;2023-09-19T01:43:33;100828.97;;;15.43
77599;BMP280;66758;52.078;5.070;2023-09-19T01:46:24;100754.78;;;15.34
77599;BMP280;66758;52.078;5.070;2023-09-19T01:49:22;100701.56;;;15.40
77599;BMP280;66758;52.078;5.070;2023-09-19T01:52:11;100635.69;;;15.32
77599;BMP280;66758;52.078;5.070;2023-09-19T01:54:48;100615.97;;;15.40
77599;BMP280;66758;52.078;5.070;2023-09-19T01:57:22;100582.06;;;15.47
77599;BMP280;66758;52.078;5.070;2023-09-19T02:00:07;100524.50;;;15.42
77599;BMP280;66758;52.078;5.070;2023-09-19T02:02:36;100479.94;;;15.47
77599;BMP280;66758;52.078;5.070;2023-09-19T02:05:03;100446.00;;;15.47
77599;BMP280;66758;52.078;5.070;2023-09-19T02:07:29;100409.31;;;15.50
77599;BMP280;66758;52.078;5.070;2023-09-19T02:09:56;100388.41;;;15.56
77599;BMP280;66758;52.078;5.070;2023-09-19T02:12:22;100342.97;;;15.60
77599;BMP280;66758;52.078;5.070;2023-09-19T02:14:48;100311.88;;;15.56
77599;BMP280;66758;52.078;5.070;2023-09-19T02:17:13;100281.88;;;15.58
77599;BMP280;66758;52.078;5.070;2023-09-19T02:19:38;100227.47;;;15.55
77599;BMP280;66758;52.078;5.070;2023-09-19T02:22:06;100190.81;;;15.51
77599;BMP280;66758;52.078;5.070;2023-09-19T02:24:36;100159.59;;;15.58
77599;BMP280;66758;52.078;5.070;2023-09-19T02:27:02;100121.75;;;15.55
77599;BMP280;66758;52.078;5.070;2023-09-19T02:29:31;100078.03;;;15.53
77599;BMP280;66758;52.078;5.070;2023-09-19T02:31:59;100054.81;;;15.47
77599;BMP280;66758;52.078;5.070;2023-09-19T02:34:24;100036.22;;;15.51
77599;BMP280;66758;52.078;5.070;2023-09-19T02:36:50;100023.25;;;15.48
77599;BMP280;66758;52.078;5.070;2023-09-19T02:39:17;100011.00;;;15.49
77599;BMP280;66758;52.078;5.070;2023-09-19T02:41:43;99984.44;;;15.62
77599;BMP280;66758;52.078;5.070;2023-09-19T02:44:08;99935.91;;;15.65
77599;BMP280;66758;52.078;5.070;2023-09-19T02:46:34;99913.81;;;15.61
77599;BMP280;66758;52.078;5.070;2023-09-19T02:49:03;99858.22;;;15.63
77599;BMP280;66758;52.078;5.070;2023-09-19T02:51:32;99759.44;;;15.74
77599;BMP280;66758;52.078;5.070;2023-09-19T02:53:59;99718.84;;;15.71
77599;BMP280;66758;52.078;5.070;2023-09-19T02:56:24;99677.97;;;15.62
77599;BMP280;66758;52.078;5.070;2023-09-19T02:58:50;99631.88;;;15.59
77599;BMP280;66758;52.078;5.070;2023-09-19T03:01:16;99529.09;;;15.52
77599;BMP280;66758;52.078;5.070;2023-09-19T03:03:43;99511.34;;;15.53
77599;BMP280;66758;52.078;5.070;2023-09-19T03:06:10;99495.31;;;15.44
77599;BMP280;66758;52.078;5.070;2023-09-19T03:08:40;99500.91;;;15.40
77599;BMP280;66758;52.078;5.070;2023-09-19T03:11:10;99512.13;;;15.30
77599;BMP280;66758;52.078;5.070;2023-09-19T03:13:37;99536.22;;;15.26
77599;BMP280;66758;52.078;5.070;2023-09-19T03:16:04;99546.53;;;15.22
77599;BMP280;66758;52.078;5.070;2023-09-19T03:18:34;99573.69;;;15.23
77599;BMP280;66758;52.078;5.070;2023-09-19T03:20:59;99588.66;;;15.26
77599;BMP280;66758;52.078;5.070;2023-09-19T03:23:26;99595.72;;;15.27
77599;BMP280;66758;52.078;5.070;2023-09-19T03:25:53;99587.44;;;15.27
77599;BMP280;66758;52.078;5.070;2023-09-19T03:28:19;99581.50;;;15.28
77599;BMP280;66758;52.078;5.070;2023-09-19T03:30:46;99557.84;;;15.31
77599;BMP280;66758;52.078;5.070;2023-09-19T03:33:12;99545.22;;;15.30
77599;BMP280;66758;52.078;5.070;2023-09-19T03:35:39;99495.47;;;15.37
77599;BMP280;66758;52.078;5.070;2023-09-19T03:38:05;99460.03;;;15.32
77599;BMP280;66758;52.078;5.070;2023-09-19T03:40:30;99444.72;;;15.31
77599;BMP280;66758;52.078;5.070;2023-09-19T03:42:55;99411.22;;;15.29
77599;BMP280;66758;52.078;5.070;2023-09-19T03:45:21;99170.16;;;15.23
77599;BMP280;66758;52.078;5.070;2023-09-19T03:47:46;99146.88;;;15.24
77599;BMP280;66758;52.078;5.070;2023-09-19T03:50:15;99090.53;;;15.25
77599;BMP280;66758;52.078;5.070;2023-09-19T03:52:45;99066.66;;;15.34
77599;BMP280;66758;52.078;5.070;2023-09-19T03:55:11;99015.38;;;15.37
77599;BMP280;66758;52.078;5.070;2023-09-19T03:57:37;98988.25;;;15.32
77599;BMP280;66758;52.078;5.070;2023-09-19T04:00:03;98932.75;;;15.30
77599;BMP280;66758;52.078;5.070;2023-09-19T04:02:36;98902.00;;;15.31
77599;BMP280;66758;52.078;5.070;2023-09-19T04:05:03;98863.16;;;15.38
77599;BMP280;66758;52.078;5.070;2023-09-19T04:07:28;98836.53;;;15.32
77599;BMP280;66758;52.078;5.070;2023-09-19T04:09:55;98822.44;;;15.30
77599;BMP280;66758;52.078;5.070;2023-09-19T04:12:20;98808.28;;;15.28
77599;BMP280;66758;52.078;5.070;2023-09-19T04:14:46;98795.03;;;15.23
77599;BMP280;66758;52.078;5.070;2023-09-19T04:17:11;98783.13;;;15.26
77599;BMP280;66758;52.078;5.070;2023-09-19T04:19:37;98769.34;;;15.26
77599;BMP280;66758;52.078;5.070;2023-09-19T04:22:03;98761.34;;;15.15
77599;BMP280;66758;52.078;5.070;2023-09-19T04:24:29;98747.06;;;15.20
77599;BMP280;66758;52.078;5.070;2023-09-19T04:26:54;98741.84;;;15.22
77599;BMP280;66758;52.078;5.070;2023-09-19T04:29:19;98740.94;;;15.13
77599;BMP280;66758;52.078;5.070;2023-09-19T04:31:45;98751.63;;;15.11
77599;BMP280;66758;52.078;5.070;2023-09-19T04:34:11;98754.44;;;15.23
77599;BMP280;66758;52.078;5.070;2023-09-19T04:36:42;98735.56;;;15.22
77599;BMP280;66758;52.078;5.070;2023-09-19T04:39:08;98736.75;;;15.21
77599;BMP280;66758;52.078;5.070;2023-09-19T04:41:36;98729.91;;;15.13
77599;BMP280;66758;52.078;5.070;2023-09-19T04:44:05;98747.56;;;15.15
77599;BMP280;66758;52.078;5.070;2023-09-19T04:46:30;98756.81;;;15.09
77599;BMP280;66758;52.078;5.070;2023-09-19T04:48:56;98799.81;;;15.06
77599;BMP280;66758;52.078;5.070;2023-09-19T04:51:21;98813.94;;;15.08
77599;BMP280;66758;52.078;5.070;2023-09-19T04:53:47;98831.03;;;15.03
77599;BMP280;66758;52.078;5.070;2023-09-19T04:56:13;98834.09;;;15.05
77599;BMP280;66758;52.078;5.070;2023-09-19T04:58:38;98841.84;;;15.10
77599;BMP280;66758;52.078;5.070;2023-09-19T05:01:04;98866.41;;;15.05
77599;BMP280;66758;52.078;5.070;2023-09-19T05:03:29;98884.25;;;15.00
77599;BMP280;66758;52.078;5.070;2023-09-19T05:05:55;98916.75;;;15.09
77599;BMP280;66758;52.078;5.070;2023-09-19T05:08:20;98936.13;;;15.05
77599;BMP280;66758;52.078;5.070;2023-09-19T05:10:47;98960.69;;;14.99
77599;BMP280;66758;52.078;5.070;2023-09-19T05:13:14;98983.63;;;14.96
77599;BMP280;66758;52.078;5.070;2023-09-19T05:15:39;99005.94;;;15.02
77599;BMP280;66758;52.078;5.070;2023-09-19T05:18:05;99038.56;;;15.04
77599;BMP280;66758;52.078;5.070;2023-09-19T05:20:31;99056.34;;;15.03
77599;BMP280;66758;52.078;5.070;2023-09-19T05:23:04;99073.69;;;15.03
77599;BMP280;66758;52.078;5.070;2023-09-19T05:25:33;99095.28;;;15.05
77599;BMP280;66758;52.078;5.070;2023-09-19T05:28:03;99115.31;;;15.09
77599;BMP280;66758;52.078;5.070;2023-09-19T05:30:29;99130.22;;;15.11
77599;BMP280;66758;52.078;5.070;2023-09-19T05:32:54;99148.41;;;15.09
77599;BMP280;66758;52.078;5.070;2023-09-19T05:35:21;99174.97;;;15.19
77599;BMP280;66758;52.078;5.070;2023-09-19T05:37:50;99188.63;;;15.26
77599;BMP280;66758;52.078;5.070;2023-09-19T05:40:19;99199.00;;;15.38
77599;BMP280;66758;52.078;5.070;2023-09-19T05:42:45;99168.22;;;15.39
77599;BMP280;66758;52.078;5.070;2023-09-19T05:45:11;99164.94;;;15.45
77599;BMP280;66758;52.078;5.070;2023-09-19T05:47:42;99151.94;;;15.45
77599;BMP280;66758;52.078;5.070;2023-09-19T05:50:12;99142.97;;;15.41
77599;BMP280;66758;52.078;5.070;2023-09-19T05:52:38;99127.09;;;15.45
77599;BMP280;66758;52.078;5.070;2023-09-19T05:55:05;99126.41;;;15.41
77599;BMP280;66758;52.078;5.070;2023-09-19T05:57:32;99113.03;;;15.39
77599;BMP280;66758;52.078;5.070;2023-09-19T05:59:58;99113.81;;;15.40
77599;BMP280;66758;52.078;5.070;2023-09-19T06:02:23;99119.59;;;15.46
77599;BMP280;66758;52.078;5.070;2023-09-19T06:04:48;99113.41;;;15.42
77599;BMP280;66758;52.078;5.070;2023-09-19T06:07:15;99133.13;;;15.40
77599;BMP280;66758;52.078;5.070;2023-09-19T06:09:41;99149.88;;;15.49
77599;BMP280;66758;52.078;5.070;2023-09-19T06:12:07;99165.91;;;15.54
77599;BMP280;66758;52.078;5.070;2023-09-19T06:14:32;99185.81;;;15.62
77599;BMP280;66758;52.078;5.070;2023-09-19T06:16:58;99193.69;;;15.63
77599;BMP280;66758;52.078;5.070;2023-09-19T06:19:25;99231.47;;;15.66
77599;BMP280;66758;52.078;5.070;2023-09-19T06:21:52;99264.44;;;15.73
77599;BMP280;66758;52.078;5.070;2023-09-19T06:24:19;99307.75;;;15.76
77599;BMP280;66758;52.078;5.070;2023-09-19T06:26:45;99347.03;;;15.84
77599;BMP280;66758;52.078;5.070;2023-09-19T06:29:10;99345.47;;;15.83
77599;BMP280;66758;52.078;5.070;2023-09-19T06:31:35;99338.16;;;15.93
77599;BMP280;66758;52.078;5.070;2023-09-19T06:34:01;99333.00;;;15.95
77599;BMP280;66758;52.078;5.070;2023-09-19T06:36:28;99333.44;;;15.93
77599;BMP280;66758;52.078;5.070;2023-09-19T06:38:54;99328.38;;;16.08
77599;BMP280;66758;52.078;5.070;2023-09-19T06:41:19;99359.72;;;16.01
77599;BMP280;66758;52.078;5.070;2023-09-19T06:43:46;99356.16;;;16.01
77599;BMP280;66758;52.078;5.070;2023-09-19T06:46:11;99367.50;;;16.06
77599;BMP280;66758;52.078;5.070;2023-09-19T06:48:39;99363.94;;;16.06
77599;BMP280;66758;52.078;5.070;2023-09-19T06:51:04;99370.84;;;16.14
77599;BMP280;66758;52.078;5.070;2023-09-19T06:53:33;99368.88;;;16.14
77599;BMP280;66758;52.078;5.070;2023-09-19T06:56:00;99364.50;;;16.17
77599;BMP280;66758;52.078;5.070;2023-09-19T06:58:26;99374.16;;;16.25
77599;BMP280;66758;52.078;5.070;2023-09-19T07:00:51;99363.97;;;16.22
77599;BMP280;66758;52.078;5.070;2023-09-19T07:03:17;99354.66;;;16.32
77599;BMP280;66758;52.078;5.070;2023-09-19T07:05:44;99338.78;;;16.36
77599;BMP280;66758;52.078;5.070;2023-09-19T07:08:10;99326.34;;;16.44
77599;BMP280;66758;52.078;5.070;2023-09-19T07:10:38;99304.31;;;16.57
77599;BMP280;66758;52.078;5.070;2023-09-19T07:13:07;99266.13;;;16.52
77599;BMP280;66758;52.078;5.070;2023-09-19T07:15:36;99242.63;;;16.60
77599;BMP280;66758;52.078;5.070;2023-09-19T07:18:04;99206.75;;;16.73
77599;BMP280;66758;52.078;5.070;2023-09-19T07:20:30;99170.38;;;16.74
77599;BMP280;66758;52.078;5.070;2023-09-19T07:23:00;99145.38;;;16.78
77599;BMP280;66758;52.078;5.070;2023-09-19T07:25:26;99118.19;;;16.76
77599;BMP280;66758;52.078;5.070;2023-09-19T07:27:52;99108.78;;;16.86
77599;BMP280;66758;52.078;5.070;2023-09-19T07:30:17;99087.75;;;16.89
77599;BMP280;66758;52.078;5.070;2023-09-19T07:32:44;99058.03;;;17.05
77599;BMP280;66758;52.078;5.070;2023-09-19T07:35:09;99026.25;;;17.10
77599;BMP280;66758;52.078;5.070;2023-09-19T07:37:35;98978.00;;;17.11
77599;BMP280;66758;52.078;5.070;2023-09-19T07:40:05;98947.88;;;17.13
77599;BMP280;66758;52.078;5.070;2023-09-19T07:42:33;98912.09;;;17.31
77599;BMP280;66758;52.078;5.070;2023-09-19T07:45:01;98869.25;;;17.36
77599;BMP280;66758;52.078;5.070;2023-09-19T07:47:26;98861.16;;;17.41
77599;BMP280;66758;52.078;5.070;2023-09-19T07:49:53;98848.06;;;17.42
77599;BMP280;66758;52.078;5.070;2023-09-19T07:52:20;98818.78;;;17.53
77599;BMP280;66758;52.078;5.070;2023-09-19T07:54:47;98806.91;;;17.53
77599;BMP280;66758;52.078;5.070;2023-09-19T07:57:14;98784.47;;;17.51
77599;BMP280;66758;52.078;5.070;2023-09-19T07:59:41;98759.59;;;17.60
77599;BMP280;66758;52.078;5.070;2023-09-19T08:02:07;98732.13;;;17.75
77599;BMP280;66758;52.078;5.070;2023-09-19T08:04:35;98714.16;;;17.79
77599;BMP280;66758;52.078;5.070;2023-09-19T08:07:00;98687.69;;;17.87
77599;BMP280;66758;52.078;5.070;2023-09-19T08:09:28;98669.09;;;17.88
77599;BMP280;66758;52.078;5.070;2023-09-19T08:11:58;98638.03;;;18.02
77599;BMP280;66758;52.078;5.070;2023-09-19T08:14:23;98606.34;;;18.12
77599;BMP280;66758;52.078;5.070;2023-09-19T08:16:50;98583.06;;;18.10
77599;BMP280;66758;52.078;5.070;2023-09-19T08:19:16;98533.97;;;18.19
77599;BMP280;66758;52.078;5.070;2023-09-19T08:21:41;98481.38;;;18.52
77599;BMP280;66758;52.078;5.070;2023-09-19T08:24:10;98446.03;;;18.38
77599;BMP280;66758;52.078;5.070;2023-09-19T08:26:36;98415.84;;;18.40
77599;BMP280;66758;52.078;5.070;2023-09-19T08:29:03;98390.75;;;18.34
77599;BMP280;66758;52.078;5.070;2023-09-19T08:31:30;98396.38;;;18.16
77599;BMP280;66758;52.078;5.070;2023-09-19T08:33:55;98392.63;;;18.28
77599;BMP280;66758;52.078;5.070;2023-09-19T08:36:21;98342.75;;;18.61
77599;BMP280;66758;52.078;5.070;2023-09-19T08:38:47;98330.88;;;18.61
77599;BMP280;66758;52.078;5.070;2023-09-19T08:41:17;98274.22;;;18.76
77599;BMP280;66758;52.078;5.070;2023-09-19T08:43:42;98212.94;;;18.89
77599;BMP280;66758;52.078;5.070;2023-09-19T08:46:14;98157.56;;;18.95
77599;BMP280;66758;52.078;5.070;2023-09-19T08:48:57;98071.88;;;19.31
77599;BMP280;66758;52.078;5.070;2023-09-19T08:51:29;98027.25;;;19.15
77599;BMP280;66758;52.078;5.070;2023-09-19T08:56:32;97976.66;;;19.05
77599;BMP280;66758;52.078;5.070;2023-09-19T08:59:01;97968.59;;;19.07
77599;BMP280;66758;52.078;5.070;2023-09-19T09:01:28;97925.09;;;19.59
77599;BMP280;66758;52.078;5.070;2023-09-19T09:03:55;97895.31;;;19.60
77599;BMP280;66758;52.078;5.070;2023-09-19T09:06:22;97830.91;;;19.87
77599;BMP280;66758;52.078;5.070;2023-09-19T09:08:50;97773.03;;;20.17
77599;BMP280;66758;52.078;5.070;2023-09-19T09:11:16;97768.78;;;19.85
77599;BMP280;66758;52.078;5.070;2023-09-19T09:13:43;97765.13;;;19.67
77599;BMP280;66758;52.078;5.070;2023-09-19T09:16:09;97747.59;;;19.87
77599;BMP280;66758;52.078;5.070;2023-09-19T09:18:35;97794.22;;;19.46
77599;BMP280;66758;52.078;5.070;2023-09-19T09:21:01;97799.66;;;19.61
77599;BMP280;66758;52.078;5.070;2023-09-19T09:23:27;97803.63;;;19.54
77599;BMP280;66758;52.078;5.070;2023-09-19T09:25:55;97789.19;;;19.76
77599;BMP280;66758;52.078;5.070;2023-09-19T09:28:30;97746.22;;;20.08
77599;BMP280;66758;52.078;5.070;2023-09-19T09:30:56;97735.84;;;20.03
77599;BMP280;66758;52.078;5.070;2023-09-19T09:33:24;97733.06;;;20.09
77599;BMP280;66758;52.078;5.070;2023-09-19T09:38:28;97626.88;;;20.86
77599;BMP280;66758;52.078;5.070;2023-09-19T09:40:57;97588.94;;;21.05
77599;BMP280;66758;52.078;5.070;2023-09-19T09:43:37;97561.03;;;21.39
77599;BMP280;66758;52.078;5.070;2023-09-19T09:46:22;97591.00;;;20.66
77599;BMP280;66758;52.078;5.070;2023-09-19T09:48:56;97638.97;;;20.44
77599;BMP280;66758;52.078;5.070;2023-09-19T09:52:02;97615.25;;;20.54
77599;BMP280;66758;52.078;5.070;2023-09-19T09:55:01;97562.34;;;21.21
77599;BMP280;66758;52.078;5.070;2023-09-19T09:57:30;97629.38;;;20.40
77599;BMP280;66758;52.078;5.070;2023-09-19T09:59:58;97641.75;;;20.33
77599;BMP280;66758;52.078;5.070;2023-09-19T10:02:29;97658.28;;;20.05
77599;BMP280;66758;52.078;5.070;2023-09-19T10:04:57;97418.63;;;20.16
77599;BMP280;66758;52.078;5.070;2023-09-19T10:07:40;97094.50;;;20.65
77599;BMP280;66758;52.078;5.070;2023-09-19T10:10:11;97044.88;;;20.99
77599;BMP280;66758;52.078;5.070;2023-09-19T10:12:49;96614.94;;;20.85
77599;BMP280;66758;52.078;5.070;2023-09-19T10:15:17;96267.94;;;20.57
77599;BMP280;66758;52.078;5.070;2023-09-19T10:17:47;95475.13;;;20.26
77599;BMP280;66758;52.078;5.070;2023-09-19T10:20:17;95842.84;;;20.51
77599;BMP280;66758;52.078;5.070;2023-09-19T10:22:59;96085.28;;;20.44
77599;BMP280;66758;52.078;5.070;2023-09-19T10:25:28;96186.50;;;20.36
77599;BMP280;66758;52.078;5.070;2023-09-19T10:27:54;96180.22;;;21.24
77599;BMP280;66758;52.078;5.070;2023-09-19T10:30:22;96043.38;;;21.33
77599;BMP280;66758;52.078;5.070;2023-09-19T10:33:03;96295.63;;;21.85
77599;BMP280;66758;52.078;5.070;2023-09-19T10:35:29;96475.88;;;21.97
77599;BMP280;66758;52.078;5.070;2023-09-19T10:37:59;96533.69;;;21.57
77599;BMP280;66758;52.078;5.070;2023-09-19T10:40:27;96162.34;;;20.44
77599;BMP280;66758;52.078;5.070;2023-09-19T10:43:01;95976.69;;;20.63
77599;BMP280;66758;52.078;5.070;2023-09-19T10:45:28;96006.41;;;21.53
77599;BMP280;66758;52.078;5.070;2023-09-19T10:47:57;96136.75;;;22.34
77599;BMP280;66758;52.078;5.070;2023-09-19T10:50:23;96280.63;;;22.44
77599;BMP280;66758;52.078;5.070;2023-09-19T10:52:50;96316.78;;;22.29
77599;BMP280;66758;52.078;5.070;2023-09-19T10:55:25;96441.50;;;21.95
77599;BMP280;66758;52.078;5.070;2023-09-19T10:57:54;96400.19;;;21.52
77599;BMP280;66758;52.078;5.070;2023-09-19T11:00:22;96251.13;;;21.09
77599;BMP280;66758;52.078;5.070;2023-09-19T11:03:27;96187.75;;;21.15
77599;BMP280;66758;52.078;5.070;2023-09-19T11:06:03;96182.59;;;21.19
77599;BMP280;66758;52.078;5.070;2023-09-19T11:09:00;96047.75;;;21.49
77599;BMP280;66758;52.078;5.070;2023-09-19T11:11:42;96135.78;;;21.10
77599;BMP280;66758;52.078;5.070;2023-09-19T11:30:39;96292.66;;;21.07
77599;BMP280;66758;52.078;5.070;2023-09-19T11:33:22;96363.91;;;20.71
77599;BMP280;66758;52.078;5.070;2023-09-19T11:36:09;96287.28;;;20.62
77599;BMP280;66758;52.078;5.070;2023-09-19T11:39:00;96231.06;;;20.56
77599;BMP280;66758;52.078;5.070;2023-09-19T11:41:37;96243.16;;;20.46
77599;BMP280;66758;52.078;5.070;2023-09-19T11:49:26;96495.91;;;20.70
77599;BMP280;66758;52.078;5.070;2023-09-19T11:51:57;96437.69;;;20.85
77599;BMP280;66758;52.078;5.070;2023-09-19T11:54:23;96404.31;;;20.59
77599;BMP280;66758;52.078;5.070;2023-09-19T11:56:51;96278.63;;;20.40
77599;BMP280;66758;52.078;5.070;2023-09-19T11:59:27;96159.41;;;20.15
77599;BMP280;66758;52.078;5.070;2023-09-19T12:01:58;96022.38;;;20.34
77599;BMP280;66758;52.078;5.070;2023-09-19T12:04:42;95881.03;;;20.09
77599;BMP280;66758;52.078;5.070;2023-09-19T12:07:11;95793.88;;;20.12
77599;BMP280;66758;52.078;5.070;2023-09-19T12:10:02;95594.84;;;20.07
77599;BMP280;66758;52.078;5.070;2023-09-19T12:12:29;95476.34;;;19.95
77599;BMP280;66758;52.078;5.070;2023-09-19T12:14:59;95369.53;;;19.88
77599;BMP280;66758;52.078;5.070;2023-09-19T12:20:03;95359.41;;;19.98
77599;BMP280;66758;52.078;5.070;2023-09-19T12:22:46;95352.94;;;20.03
77599;BMP280;66758;52.078;5.070;2023-09-19T12:25:13;95377.19;;;20.18
77599;BMP280;66758;52.078;5.070;2023-09-19T12:30:10;95488.38;;;19.97
77599;BMP280;66758;52.078;5.070;2023-09-19T12:32:39;95389.72;;;19.89
77599;BMP280;66758;52.078;5.070;2023-09-19T12:35:06;95240.03;;;19.91
77599;BMP280;66758;52.078;5.070;2023-09-19T12:37:43;95176.13;;;20.21
77599;BMP280;66758;52.078;5.070;2023-09-19T12:40:13;95310.69;;;20.43
77599;BMP280;66758;52.078;5.070;2023-09-19T12:42:48;95485.53;;;20.56
77599;BMP280;66758;52.078;5.070;2023-09-19T12:45:15;95551.47;;;20.63
77599;BMP280;66758;52.078;5.070;2023-09-19T12:53:33;95309.06;;;20.09
77599;BMP280;66758;52.078;5.070;2023-09-19T12:56:01;95069.34;;;20.14
77599;BMP280;66758;52.078;5.070;2023-09-19T12:58:28;94741.09;;;20.06
77599;BMP280;66758;52.078;5.070;2023-09-19T13:00:55;94371.78;;;19.51
77599;BMP280;66758;52.078;5.070;2023-09-19T13:06:03;94020.69;;;19.84
77599;BMP280;66758;52.078;5.070;2023-09-19T13:08:38;93723.88;;;19.84
77599;BMP280;66758;52.078;5.070;2023-09-19T13:13:33;93679.44;;;20.36
77599;BMP280;66758;52.078;5.070;2023-09-19T13:15:59;93847.00;;;20.41
77599;BMP280;66758;52.078;5.070;2023-09-19T13:18:27;93889.97;;;20.40
77599;BMP280;66758;52.078;5.070;2023-09-19T13:21:09;93998.38;;;20.42
77599;BMP280;66758;52.078;5.070;2023-09-19T13:23:51;94165.59;;;20.50
77599;BMP280;66758;52.078;5.070;2023-09-19T13:26:17;94232.50;;;20.35
77599;BMP280;66758;52.078;5.070;2023-09-19T13:28:42;94377.38;;;20.14
77599;BMP280;66758;52.078;5.070;2023-09-19T13:31:10;94450.78;;;20.30
77599;BMP280;66758;52.078;5.070;2023-09-19T13:33:43;94600.38;;;20.43
77599;BMP280;66758;52.078;5.070;2023-09-19T13:36:09;94678.47;;;20.47
77599;BMP280;66758;52.078;5.070;2023-09-19T13:38:34;94720.38;;;20.42
77599;BMP280;66758;52.078;5.070;2023-09-19T13:41:00;94858.56;;;20.09
77599;BMP280;66758;52.078;5.070;2023-09-19T13:43:27;94953.53;;;20.07
77599;BMP280;66758;52.078;5.070;2023-09-19T13:45:54;95044.59;;;20.01
77599;BMP280;66758;52.078;5.070;2023-09-19T13:48:19;95152.84;;;20.09
77599;BMP280;66758;52.078;5.070;2023-09-19T13:50:48;95202.97;;;20.18
77599;BMP280;66758;52.078;5.070;2023-09-19T13:53:13;95355.50;;;20.09
77599;BMP280;66758;52.078;5.070;2023-09-19T13:55:39;95427.69;;;20.09
77599;BMP280;66758;52.078;5.070;2023-09-19T13:58:05;95569.16;;;20.14
77599;BMP280;66758;52.078;5.070;2023-09-19T14:00:33;95690.22;;;20.17
77599;BMP280;66758;52.078;5.070;2023-09-19T14:03:01;95844.19;;;20.09
77599;BMP280;66758;52.078;5.070;2023-09-19T14:05:27;95975.47;;;20.09
77599;BMP280;66758;52.078;5.070;2023-09-19T14:07:53;96066.91;;;20.07
77599;BMP280;66758;52.078;5.070;2023-09-19T14:10:22;96104.06;;;20.04
77599;BMP280;66758;52.078;5.070;2023-09-19T14:12:48;96060.06;;;19.95
77599;BMP280;66758;52.078;5.070;2023-09-19T14:15:14;96104.41;;;19.74
77599;BMP280;66758;52.078;5.070;2023-09-19T14:17:40;96067.34;;;19.85
77599;BMP280;66758;52.078;5.070;2023-09-19T14:20:11;96037.66;;;19.93
77599;BMP280;66758;52.078;5.070;2023-09-19T14:22:36;96021.41;;;19.97
77599;BMP280;66758;52.078;5.070;2023-09-19T14:25:03;96012.66;;;20.06
77599;BMP280;66758;52.078;5.070;2023-09-19T14:27:29;96028.06;;;19.94
77599;BMP280;66758;52.078;5.070;2023-09-19T14:29:54;96060.88;;;20.16
77599;BMP280;66758;52.078;5.070;2023-09-19T14:32:22;96136.44;;;19.89
77599;BMP280;66758;52.078;5.070;2023-09-19T14:34:47;96091.59;;;19.85
77599;BMP280;66758;52.078;5.070;2023-09-19T14:37:13;96021.88;;;19.75
77599;BMP280;66758;52.078;5.070;2023-09-19T14:39:38;95868.81;;;19.71
77599;BMP280;66758;52.078;5.070;2023-09-19T14:42:04;95660.06;;;19.65
77599;BMP280;66758;52.078;5.070;2023-09-19T14:44:30;95461.41;;;19.62
77599;BMP280;66758;52.078;5.070;2023-09-19T14:46:55;95230.75;;;19.65
77599;BMP280;66758;52.078;5.070;2023-09-19T14:49:21;95138.66;;;19.74
77599;BMP280;66758;52.078;5.070;2023-09-19T14:51:46;95081.69;;;19.66
77599;BMP280;66758;52.078;5.070;2023-09-19T14:54:15;95038.41;;;19.70
77599;BMP280;66758;52.078;5.070;2023-09-19T14:56:44;95057.31;;;19.64
77599;BMP280;66758;52.078;5.070;2023-09-19T14:59:10;95091.88;;;19.71
77599;BMP280;66758;52.078;5.070;2023-09-19T15:01:36;95144.94;;;19.75
77599;BMP280;66758;52.078;5.070;2023-09-19T15:04:02;95251.88;;;19.76